createdAt,value
2019-05-29T00:02:06.058Z,55.90
2019-05-29T00:04:36.307Z,56.00
2019-05-29T00:07:06.132Z,56.20
2019-05-29T00:09:35.275Z,56.40
2019-05-29T00:12:04.362Z,56.50
2019-05-29T00:14:33.467Z,56.60
2019-05-29T00:17:02.407Z,56.70
2019-05-29T00:19:31.416Z,56.60
2019-05-29T00:22:00.601Z,56.60
2019-05-29T00:24:29.632Z,56.50
2019-05-29T00:26:58.773Z,56.30
2019-05-29T00:29:27.930Z,56.20
2019-05-29T00:31:56.857Z,56.20
2019-05-29T00:34:25.973Z,55.90
2019-05-29T00:36:55.019Z,55.90
2019-05-29T00:39:24.091Z,56.00
2019-05-29T00:41:53.289Z,56.10
2019-05-29T00:44:33.843Z,56.30
2019-05-29T00:46:53.469Z,56.60
2019-05-29T00:49:22.557Z,56.80
2019-05-29T00:51:51.735Z,56.90
2019-05-29T00:54:20.947Z,56.90
2019-05-29T00:56:50.037Z,57.10
2019-05-29T00:59:19.239Z,57.20
2019-05-29T01:01:48.364Z,57.40
2019-05-29T01:04:17.886Z,57.30
2019-05-29T01:06:47.015Z,57.40
2019-05-29T01:09:16.518Z,57.50
2019-05-29T01:11:45.758Z,57.50
2019-05-29T01:14:15.138Z,57.50
2019-05-29T01:16:44.175Z,57.70
2019-05-29T01:19:25.195Z,58.10
2019-05-29T01:21:55.150Z,58.20
2019-05-29T01:24:24.607Z,58.40
2019-05-29T01:26:53.659Z,58.70
2019-05-29T01:29:23.428Z,59.00
2019-05-29T01:31:52.977Z,59.10
2019-05-29T01:34:22.079Z,59.20
2019-05-29T01:36:51.047Z,59.50
2019-05-29T01:39:21.291Z,59.80
2019-05-29T01:41:50.405Z,59.90
2019-05-29T01:44:23.694Z,60.20
2019-05-29T01:46:56.020Z,60.30
2019-05-29T01:49:25.439Z,60.50
2019-05-29T01:51:54.543Z,60.70
2019-05-29T01:54:23.889Z,60.90
2019-05-29T01:56:53.040Z,61.20
2019-05-29T01:59:22.236Z,61.40
2019-05-29T02:01:51.316Z,61.70
2019-05-29T02:04:20.389Z,61.90
2019-05-29T02:06:49.322Z,62.30
2019-05-29T02:09:18.351Z,62.60
2019-05-29T02:11:47.395Z,63.00
2019-05-29T02:14:16.426Z,63.10
2019-05-29T02:16:45.638Z,63.10
2019-05-29T02:19:15.740Z,63.20
2019-05-29T02:21:44.990Z,63.20
2019-05-29T02:24:13.995Z,63.00
2019-05-29T02:26:43.072Z,63.20
2019-05-29T02:29:12.038Z,63.20
2019-05-29T02:31:41.012Z,63.50
2019-05-29T02:34:10.108Z,63.50
2019-05-29T02:36:39.148Z,63.70
2019-05-29T02:39:08.281Z,63.60
2019-05-29T02:41:37.634Z,64.00
2019-05-29T02:44:06.743Z,64.10
2019-05-29T02:46:35.881Z,64.50
2019-05-29T02:49:05.121Z,64.60
2019-05-29T02:51:34.177Z,64.80
2019-05-29T02:54:03.517Z,64.90
2019-05-29T02:56:32.558Z,65.20
2019-05-29T02:59:01.600Z,65.30
2019-05-29T03:01:31.824Z,65.30
2019-05-29T03:04:01.019Z,65.40
2019-05-29T03:06:30.349Z,65.60
2019-05-29T03:08:59.381Z,65.50
2019-05-29T03:11:29.358Z,65.80
2019-05-29T03:13:59.315Z,66.10
2019-05-29T03:16:30.111Z,66.50
2019-05-29T03:18:58.942Z,67.00
2019-05-29T03:21:28.431Z,67.20
2019-05-29T03:23:57.893Z,67.00
2019-05-29T03:26:30.310Z,67.50
2019-05-29T03:28:57.774Z,67.60
2019-05-29T03:31:30.705Z,67.80
2019-05-29T03:33:57.632Z,67.90
2019-05-29T03:36:28.686Z,67.70
2019-05-29T03:38:57.957Z,67.80
2019-05-29T03:41:35.417Z,67.70
2019-05-29T03:44:00.242Z,67.70
2019-05-29T03:46:37.728Z,68.00
2019-05-29T03:48:59.972Z,68.20
2019-05-29T03:51:31.526Z,68.60
2019-05-29T03:53:59.890Z,68.60
2019-05-29T03:56:30.422Z,69.00
2019-05-29T03:58:59.671Z,68.80
2019-05-29T04:01:29.080Z,69.10
2019-05-29T04:03:58.836Z,69.20
2019-05-29T04:06:29.092Z,69.20
2019-05-29T04:08:58.524Z,69.30
2019-05-29T04:11:29.118Z,69.30
2019-05-29T04:13:58.834Z,69.60
2019-05-29T04:16:54.032Z,69.30
2019-05-29T04:19:04.598Z,69.40
2019-05-29T04:21:34.715Z,69.60
2019-05-29T04:24:07.523Z,70.00
2019-05-29T04:26:40.257Z,70.00
2019-05-29T04:29:10.023Z,69.60
2019-05-29T04:31:39.323Z,70.10
2019-05-29T04:34:08.443Z,70.30
2019-05-29T04:36:39.091Z,70.50
2019-05-29T04:39:08.902Z,70.40
2019-05-29T04:41:39.230Z,70.30
2019-05-29T04:44:08.734Z,70.10
2019-05-29T04:46:38.469Z,69.80
2019-05-29T04:49:08.357Z,70.50
2019-05-29T04:51:37.580Z,70.60
2019-05-29T04:54:07.332Z,70.70
2019-05-29T04:56:37.083Z,70.30
2019-05-29T04:59:06.299Z,70.20
2019-05-29T05:01:35.450Z,70.20
2019-05-29T05:04:05.571Z,70.10
2019-05-29T05:06:35.287Z,70.00
2019-05-29T05:09:06.687Z,70.10
2019-05-29T05:11:36.292Z,70.40
2019-05-29T05:14:07.551Z,70.40
2019-05-29T05:16:37.896Z,70.30
2019-05-29T05:19:09.174Z,70.30
2019-05-29T05:21:38.429Z,70.20
2019-05-29T05:24:07.686Z,70.10
2019-05-29T05:26:36.776Z,69.80
2019-05-29T05:29:06.270Z,69.50
2019-05-29T05:31:36.509Z,69.40
2019-05-29T05:34:06.186Z,69.40
2019-05-29T05:36:45.113Z,68.50
2019-05-29T05:39:23.717Z,68.60
2019-05-29T05:42:02.446Z,68.70
2019-05-29T05:44:34.959Z,68.30
2019-05-29T05:47:12.245Z,68.40
2019-05-29T05:49:52.307Z,68.20
2019-05-29T05:53:07.345Z,67.60
2019-05-29T05:55:43.830Z,66.20
2019-05-29T05:58:14.906Z,65.40
2019-05-29T06:00:44.235Z,65.70
2019-05-29T06:03:13.859Z,65.80
2019-05-29T06:05:45.652Z,65.50
2019-05-29T06:08:15.581Z,65.20
2019-05-29T06:10:44.894Z,65.20
2019-05-29T06:13:14.134Z,65.10
2019-05-29T06:15:43.497Z,65.30
2019-05-29T06:18:21.301Z,65.00
2019-05-29T06:20:43.731Z,65.70
2019-05-29T06:23:13.183Z,65.50
2019-05-29T06:25:43.811Z,64.80
2019-05-29T06:28:14.848Z,64.40
2019-05-29T06:30:45.092Z,64.30
2019-05-29T06:33:14.551Z,64.40
2019-05-29T06:35:45.323Z,64.20
2019-05-29T06:38:15.089Z,64.40
2019-05-29T06:40:45.989Z,63.80
2019-05-29T06:43:24.147Z,64.30
2019-05-29T06:46:00.795Z,64.10
2019-05-29T06:48:43.051Z,64.20
2019-05-29T06:51:02.051Z,63.00
2019-05-29T06:53:31.319Z,62.70
2019-05-29T06:56:04.819Z,62.10
2019-05-29T06:58:38.079Z,59.90
2019-05-29T07:01:16.392Z,60.50
2019-05-29T07:03:48.178Z,60.10
2019-05-29T07:06:21.180Z,59.50
2019-05-29T07:08:53.181Z,59.40
2019-05-29T07:11:22.807Z,59.00
2019-05-29T07:13:52.188Z,59.20
2019-05-29T07:16:22.541Z,59.00
2019-05-29T07:19:23.872Z,58.80
2019-05-29T07:21:23.450Z,59.10
2019-05-29T07:24:10.548Z,59.00
2019-05-29T07:26:45.442Z,58.40
2019-05-29T07:29:14.922Z,58.50
2019-05-29T07:31:49.233Z,58.20
2019-05-29T07:34:20.919Z,58.30
2019-05-29T07:36:50.034Z,57.90
2019-05-29T07:39:19.509Z,57.80
2019-05-29T07:41:49.275Z,57.70
2019-05-29T07:44:18.443Z,57.60
2019-05-29T07:46:48.868Z,57.50
2019-05-29T07:49:18.757Z,57.60
2019-05-29T07:51:48.820Z,57.60
2019-05-29T07:54:18.471Z,57.10
2019-05-29T07:56:49.245Z,56.30
2019-05-29T07:59:23.036Z,55.90
2019-05-29T08:01:52.787Z,55.40
2019-05-29T08:04:22.239Z,55.50
2019-05-29T08:06:54.472Z,54.70
2019-05-29T08:09:41.734Z,54.90
2019-05-29T08:12:16.001Z,55.30
2019-05-29T08:14:45.842Z,55.10
2019-05-29T08:17:15.899Z,55.00
2019-05-29T08:20:00.353Z,54.90
2019-05-29T08:22:34.349Z,53.80
2019-05-29T08:25:00.410Z,53.40
2019-05-29T08:27:29.885Z,53.90
2019-05-29T08:30:00.929Z,53.00
2019-05-29T08:32:31.616Z,53.70
2019-05-29T08:35:01.245Z,53.60
2019-05-29T08:37:32.764Z,52.80
2019-05-29T08:40:02.840Z,52.10
2019-05-29T08:42:32.901Z,52.30
2019-05-29T08:45:02.710Z,52.40
2019-05-29T08:47:32.290Z,51.80
2019-05-29T08:50:17.233Z,52.10
2019-05-29T08:52:34.203Z,52.20
2019-05-29T08:55:06.035Z,52.10
2019-05-29T08:57:42.576Z,51.70
2019-05-29T09:00:17.605Z,51.70
2019-05-29T09:02:48.916Z,51.50
2019-05-29T09:05:20.390Z,51.40
2019-05-29T09:07:51.761Z,51.00
2019-05-29T09:10:22.797Z,50.60
2019-05-29T09:13:04.878Z,50.90
2019-05-29T09:15:30.856Z,51.30
2019-05-29T09:18:01.430Z,51.30
2019-05-29T09:20:57.418Z,50.60
2019-05-29T09:23:03.041Z,50.10
2019-05-29T09:25:32.420Z,50.00
2019-05-29T09:28:01.929Z,50.20
2019-05-29T09:30:31.518Z,49.90
2019-05-29T09:33:00.565Z,50.30
2019-05-29T09:35:29.737Z,50.60
2019-05-29T09:37:59.758Z,50.80
2019-05-29T09:40:53.132Z,50.90
2019-05-29T09:43:29.981Z,50.50
2019-05-29T09:46:34.838Z,50.20
2019-05-29T09:49:05.113Z,50.10
2019-05-29T09:51:34.374Z,49.80
2019-05-29T09:54:03.709Z,49.60
2019-05-29T09:56:33.580Z,49.60
2019-05-29T09:59:03.887Z,50.40
2019-05-29T10:01:33.161Z,50.20
2019-05-29T10:04:05.841Z,49.90
2019-05-29T10:06:33.310Z,50.60
2019-05-29T10:09:03.656Z,50.10
2019-05-29T10:11:33.080Z,48.60
2019-05-29T10:14:02.812Z,48.30
2019-05-29T10:16:32.650Z,48.70
2019-05-29T10:19:03.081Z,48.30
2019-05-29T10:21:40.139Z,48.00
2019-05-29T10:24:06.172Z,48.40
2019-05-29T10:26:37.468Z,49.00
2019-05-29T10:31:41.897Z,48.70
2019-05-29T10:34:11.482Z,48.80
2019-05-29T10:34:38.778Z,48.90
2019-05-29T10:36:40.705Z,48.10
2019-05-29T10:39:12.763Z,48.00
2019-05-29T10:41:41.178Z,48.10
2019-05-29T10:44:12.769Z,48.40
2019-05-29T10:49:36.174Z,47.60
2019-05-29T10:52:16.138Z,46.90
2019-05-29T10:54:40.783Z,46.70
2019-05-29T10:57:09.838Z,46.60
2019-05-29T10:59:39.015Z,45.80
2019-05-29T11:02:08.416Z,46.60
2019-05-29T11:04:37.555Z,46.60
2019-05-29T11:07:06.932Z,46.50
2019-05-29T11:09:44.453Z,47.10
2019-05-29T11:12:10.681Z,47.90
2019-05-29T11:14:39.965Z,47.60
2019-05-29T11:17:18.444Z,47.70
2019-05-29T11:19:49.234Z,47.30
2019-05-29T11:22:26.276Z,46.90
2019-05-29T11:24:54.356Z,47.20
2019-05-29T11:27:26.363Z,47.00
2019-05-29T11:29:57.086Z,46.50
2019-05-29T11:32:26.446Z,45.60
2019-05-29T11:34:57.450Z,45.60
2019-05-29T11:37:27.825Z,45.10
2019-05-29T11:39:59.017Z,45.40
2019-05-29T11:42:33.337Z,45.20
2019-05-29T11:45:00.027Z,45.40
2019-05-29T11:47:31.143Z,45.40
2019-05-29T11:50:14.539Z,45.30
2019-05-29T11:52:58.658Z,45.90
2019-05-29T11:55:24.899Z,46.20
2019-05-29T11:57:54.336Z,46.30
2019-05-29T12:00:25.737Z,45.50
2019-05-29T12:02:59.863Z,45.60
2019-05-29T12:05:32.890Z,45.80
2019-05-29T12:08:03.099Z,45.30
2019-05-29T12:10:33.568Z,44.60
2019-05-29T12:13:03.151Z,44.30
2019-05-29T12:15:35.158Z,44.60
2019-05-29T12:18:22.654Z,44.80
2019-05-29T12:20:37.418Z,44.60
2019-05-29T12:23:24.337Z,44.40
2019-05-29T12:25:37.642Z,44.00
2019-05-29T12:28:09.897Z,44.10
2019-05-29T12:30:53.451Z,44.20
2019-05-29T12:33:23.499Z,44.30
2019-05-29T12:35:52.983Z,43.60
2019-05-29T12:38:24.226Z,44.40
2019-05-29T12:40:59.694Z,44.20
2019-05-29T12:43:30.308Z,44.30
2019-05-29T12:46:03.995Z,44.20
2019-05-29T12:48:33.468Z,44.20
2019-05-29T12:51:04.145Z,43.80
2019-05-29T12:53:34.249Z,43.80
2019-05-29T12:56:04.577Z,43.80
2019-05-29T12:58:34.151Z,43.50
2019-05-29T13:01:05.126Z,42.80
2019-05-29T13:03:35.582Z,42.80
2019-05-29T13:06:05.174Z,42.90
2019-05-29T13:08:43.488Z,42.70
2019-05-29T13:11:14.249Z,42.10
2019-05-29T13:13:44.047Z,42.30
2019-05-29T13:16:13.372Z,42.60
2019-05-29T13:18:42.973Z,42.60
2019-05-29T13:21:14.711Z,42.20
2019-05-29T13:23:45.480Z,42.20
2019-05-29T13:26:15.427Z,41.90
2019-05-29T13:28:45.140Z,41.60
2019-05-29T13:31:14.793Z,41.70
2019-05-29T13:33:44.937Z,41.90
2019-05-29T13:36:15.042Z,41.80
2019-05-29T13:38:46.956Z,41.70
2019-05-29T13:41:16.321Z,41.60
2019-05-29T13:43:45.481Z,42.00
2019-05-29T13:46:16.540Z,42.10
2019-05-29T13:49:05.325Z,41.80
2019-05-29T13:51:37.225Z,41.70
2019-05-29T13:54:14.030Z,41.40
2019-05-29T13:56:39.923Z,41.40
2019-05-29T13:59:09.463Z,41.80
2019-05-29T14:01:39.086Z,41.60
2019-05-29T14:04:08.756Z,41.60
2019-05-29T14:06:52.767Z,41.40
2019-05-29T14:09:20.944Z,41.40
2019-05-29T14:11:50.390Z,41.60
2019-05-29T14:14:20.205Z,40.80
2019-05-29T14:16:49.635Z,40.70
2019-05-29T14:19:19.113Z,40.90
2019-05-29T14:21:50.994Z,40.70
2019-05-29T14:24:29.328Z,41.00
2019-05-29T14:26:54.387Z,41.10
2019-05-29T14:29:24.203Z,40.90
2019-05-29T14:31:53.453Z,40.90
2019-05-29T14:34:22.807Z,40.90
2019-05-29T14:36:52.201Z,40.80
2019-05-29T14:39:21.534Z,40.40
2019-05-29T14:41:52.347Z,40.50
2019-05-29T14:44:21.729Z,40.10
2019-05-29T14:46:51.095Z,40.40
2019-05-29T14:49:20.806Z,40.20
2019-05-29T14:51:50.366Z,40.20
2019-05-29T14:54:20.742Z,40.30
2019-05-29T14:56:51.759Z,40.80
2019-05-29T14:59:21.951Z,40.70
2019-05-29T15:01:53.692Z,40.70
2019-05-29T15:04:22.785Z,40.30
2019-05-29T15:07:01.491Z,40.40
2019-05-29T15:09:31.414Z,40.10
2019-05-29T15:12:01.842Z,39.30
2019-05-29T15:14:31.309Z,39.90
2019-05-29T15:17:00.784Z,39.80
2019-05-29T15:19:32.590Z,39.80
2019-05-29T15:22:09.726Z,39.50
2019-05-29T15:24:59.643Z,39.70
2019-05-29T15:27:16.187Z,39.80
2019-05-29T15:29:45.850Z,40.00
2019-05-29T15:32:16.535Z,40.30
2019-05-29T15:34:46.409Z,39.90
2019-05-29T15:37:18.960Z,40.00
2019-05-29T15:39:48.448Z,39.90
2019-05-29T15:42:20.987Z,39.40
2019-05-29T15:44:50.763Z,39.40
2019-05-29T15:47:20.436Z,39.10
2019-05-29T15:49:49.898Z,38.90
2019-05-29T15:52:23.146Z,38.50
2019-05-29T15:55:21.384Z,38.10
2019-05-29T15:57:41.720Z,38.00
2019-05-29T16:00:13.588Z,38.00
2019-05-29T16:02:47.962Z,38.10
2019-05-29T16:05:19.858Z,37.90
2019-05-29T16:07:54.004Z,37.50
2019-05-29T16:10:24.769Z,37.00
2019-05-29T16:12:54.382Z,37.10
2019-05-29T16:15:24.239Z,36.80
2019-05-29T16:17:53.749Z,37.10
2019-05-29T16:20:25.156Z,37.10
2019-05-29T16:22:55.221Z,37.10
2019-05-29T16:25:39.122Z,37.00
2019-05-29T16:27:56.174Z,36.80
2019-05-29T16:30:26.562Z,36.90
2019-05-29T16:33:00.020Z,37.20
2019-05-29T16:35:29.409Z,37.90
2019-05-29T16:37:59.859Z,38.20
2019-05-29T16:40:29.404Z,38.60
2019-05-29T16:42:59.350Z,38.30
2019-05-29T16:45:29.676Z,38.70
2019-05-29T16:48:02.128Z,38.80
2019-05-29T16:50:31.563Z,38.70
2019-05-29T16:53:00.626Z,38.60
2019-05-29T16:55:29.863Z,38.90
2019-05-29T16:57:59.133Z,38.90
2019-05-29T17:00:28.627Z,38.80
2019-05-29T17:02:58.001Z,38.90
2019-05-29T17:05:27.185Z,38.80
2019-05-29T17:07:56.972Z,38.70
2019-05-29T17:10:36.686Z,38.80
2019-05-29T17:13:06.928Z,39.00
2019-05-29T17:15:36.821Z,38.80
2019-05-29T17:18:06.611Z,39.00
2019-05-29T17:20:44.063Z,39.20
2019-05-29T17:23:16.990Z,39.00
2019-05-29T17:25:46.591Z,39.40
2019-05-29T17:28:19.028Z,39.30
2019-05-29T17:30:47.399Z,39.50
2019-05-29T17:33:17.091Z,39.40
2019-05-29T17:35:47.699Z,39.50
2019-05-29T17:38:25.733Z,39.70
2019-05-29T17:40:56.710Z,39.80
2019-05-29T17:43:28.638Z,39.50
2019-05-29T17:46:06.624Z,39.30
2019-05-29T17:48:35.210Z,39.30
2019-05-29T17:51:04.740Z,39.40
2019-05-29T17:53:34.151Z,39.60
2019-05-29T17:56:03.860Z,39.80
2019-05-29T17:58:38.414Z,40.00
2019-05-29T18:01:08.084Z,40.10
2019-05-29T18:03:37.447Z,40.20
2019-05-29T18:06:06.943Z,40.20
2019-05-29T18:08:37.606Z,40.60
2019-05-29T18:11:08.940Z,40.70
2019-05-29T18:13:38.176Z,40.90
2019-05-29T18:16:14.709Z,40.70
2019-05-29T18:18:44.407Z,40.90
2019-05-29T18:21:13.552Z,40.80
2019-05-29T18:23:42.936Z,40.90
2019-05-29T18:26:12.194Z,40.80
2019-05-29T18:28:41.504Z,41.10
2019-05-29T18:31:10.689Z,41.20
2019-05-29T18:33:40.219Z,41.20
2019-05-29T18:36:10.933Z,41.10
2019-05-29T18:38:53.624Z,41.30
2019-05-29T18:41:28.513Z,41.40
2019-05-29T18:44:04.301Z,41.40
2019-05-29T18:46:37.889Z,41.30
2019-05-29T18:49:08.068Z,41.20
2019-05-29T18:51:54.052Z,41.30
2019-05-29T18:54:25.805Z,41.40
2019-05-29T18:57:13.965Z,41.50
2019-05-29T18:59:27.531Z,41.50
2019-05-29T19:02:07.556Z,41.80
2019-05-29T19:04:43.029Z,41.90
2019-05-29T19:07:13.710Z,42.10
2019-05-29T19:09:58.492Z,42.00
2019-05-29T19:12:30.332Z,42.00
2019-05-29T19:15:00.228Z,41.70
2019-05-29T19:17:32.285Z,41.70
2019-05-29T19:20:03.816Z,41.80
2019-05-29T19:22:39.238Z,41.70
2019-05-29T19:25:39.174Z,42.00
2019-05-29T19:28:11.808Z,42.20
2019-05-29T19:30:42.915Z,42.30
2019-05-29T19:33:12.405Z,42.50
2019-05-29T19:35:51.347Z,42.60
2019-05-29T19:38:20.941Z,42.60
2019-05-29T19:40:50.519Z,42.70
2019-05-29T19:43:20.094Z,42.90
2019-05-29T19:45:49.345Z,43.00
2019-05-29T19:48:21.733Z,43.10
2019-05-29T19:50:54.403Z,43.30
2019-05-29T19:53:35.549Z,43.40
2019-05-29T19:56:05.510Z,43.30
2019-05-29T19:58:36.143Z,43.30
2019-05-29T20:01:29.782Z,43.30
2019-05-29T20:03:44.933Z,43.50
2019-05-29T20:06:16.705Z,43.70
2019-05-29T20:08:46.771Z,43.80
2019-05-29T20:11:16.069Z,43.90
2019-05-29T20:13:45.391Z,44.20
2019-05-29T20:16:29.966Z,44.30
2019-05-29T20:19:00.591Z,44.40
2019-05-29T20:21:32.899Z,44.40
2019-05-29T20:24:03.353Z,44.50
2019-05-29T20:26:33.032Z,44.50
2019-05-29T20:29:02.712Z,44.60
2019-05-29T20:31:43.900Z,44.70
2019-05-29T20:34:13.500Z,44.70
2019-05-29T20:36:45.935Z,44.70
2019-05-29T20:39:15.691Z,44.70
2019-05-29T20:41:48.267Z,44.90
2019-05-29T20:47:37.823Z,44.90
2019-05-29T20:50:28.048Z,45.40
2019-05-29T20:53:00.520Z,45.50
2019-05-29T20:55:31.565Z,45.50
2019-05-29T20:58:02.014Z,45.50
2019-05-29T21:00:33.954Z,45.80
2019-05-29T21:03:08.461Z,45.90
2019-05-29T21:05:38.631Z,45.80
2019-05-29T21:08:14.913Z,46.00
2019-05-29T21:11:35.336Z,46.00
2019-05-29T21:14:20.841Z,46.10
2019-05-29T21:17:38.106Z,46.00
2019-05-29T21:20:22.307Z,46.20
2019-05-29T21:23:30.214Z,45.70
2019-05-29T21:29:25.671Z,45.90
2019-05-29T21:32:13.037Z,46.00
2019-05-29T21:34:58.572Z,46.20
2019-05-29T21:37:30.590Z,46.20
2019-05-29T21:40:03.342Z,46.40
2019-05-29T21:42:46.889Z,46.30
2019-05-29T21:45:18.894Z,46.30
2019-05-29T21:48:13.208Z,47.00
2019-05-29T21:50:51.310Z,46.60
2019-05-29T21:53:21.069Z,46.60
2019-05-29T21:55:50.664Z,46.70
2019-05-29T21:58:21.643Z,46.80
2019-05-29T22:00:52.556Z,46.90
2019-05-29T22:03:22.116Z,46.70
2019-05-29T22:05:51.470Z,46.10
2019-05-29T22:08:24.625Z,46.10
2019-05-29T22:11:21.796Z,46.10
2019-05-29T22:13:52.551Z,46.10
2019-05-29T22:16:21.931Z,46.10
2019-05-29T22:18:53.247Z,46.10
2019-05-29T22:21:24.059Z,46.10
2019-05-29T22:24:06.784Z,46.10
2019-05-29T22:26:38.429Z,46.10
2019-05-29T22:29:18.486Z,46.20
2019-05-29T22:31:55.618Z,46.30
2019-05-29T22:34:31.256Z,46.30
2019-05-29T22:37:05.606Z,46.30
2019-05-29T22:39:35.861Z,46.40
2019-05-29T22:42:11.490Z,46.40
2019-05-29T22:44:41.027Z,46.50
2019-05-29T22:47:28.656Z,46.40
2019-05-29T22:49:59.630Z,46.50
2019-05-29T22:52:42.205Z,46.40
2019-05-29T22:58:49.076Z,46.70
2019-05-29T23:01:21.147Z,46.80
2019-05-29T23:03:52.545Z,46.90
2019-05-29T23:06:24.007Z,47.00
2019-05-29T23:09:03.629Z,47.10
2019-05-29T23:11:41.181Z,47.20
2019-05-29T23:14:09.515Z,47.40
2019-05-29T23:16:40.985Z,47.60
2019-05-29T23:19:18.805Z,48.10
2019-05-29T23:21:52.318Z,48.20
2019-05-29T23:24:42.081Z,48.50
2019-05-29T23:27:11.434Z,48.60
2019-05-29T23:29:48.938Z,48.80
2019-05-29T23:32:12.937Z,49.00
2019-05-29T23:34:42.415Z,49.10
2019-05-29T23:37:27.135Z,49.20
2019-05-29T23:40:07.067Z,49.60
2019-05-29T23:42:40.617Z,49.70
2019-05-29T23:45:16.440Z,49.80
2019-05-29T23:47:50.764Z,49.90
2019-05-29T23:50:23.596Z,50.10
2019-05-29T23:52:53.837Z,50.20
2019-05-29T23:55:23.474Z,50.30
2019-05-29T23:57:55.953Z,50.40
